Time;durP1;ratioP1;P1;durP2;ratioP2;P2;SDS_P1;SDS_P2;PMS_P1;PMS_P2;Temp;Humidity;BMP_temperature;BMP_pressure;BME280_temperature;BME280_humidity;BME280_pressure;Samples;Min_cycle;Max_cycle;Signal;HPM_P1;HPM_P2
2022/10/05 00:02:15;;;;;;;4.50;3.67;;;10.20;99.90;;;;;;5039946;28;20464;-79
2022/10/05 00:05:01;;;;;;;6.13;4.30;;;10.10;99.90;;;;;;5044687;28;21020;-79
2022/10/05 00:07:48;;;;;;;8.53;4.80;;;9.90;99.90;;;;;;5049927;28;20428;-79
2022/10/05 00:10:34;;;;;;;5.40;4.00;;;9.80;99.90;;;;;;5041128;28;21042;-79
2022/10/05 00:13:21;;;;;;;7.70;4.60;;;9.70;99.90;;;;;;5034380;28;20440;-79
2022/10/05 00:16:15;;;;;;;11.33;4.10;;;9.90;99.90;;;;;;5048239;28;20431;-79
2022/10/05 00:19:00;;;;;;;13.27;5.27;;;10.00;99.90;;;;;;5053650;28;20432;-79
2022/10/05 00:21:46;;;;;;;19.00;5.33;;;10.00;99.90;;;;;;5059663;22;20492;-75
2022/10/05 00:24:39;;;;;;;12.20;5.57;;;9.80;99.90;;;;;;5082855;28;20453;-75
2022/10/05 00:27:31;;;;;;;7.60;5.30;;;9.90;99.90;;;;;;5082997;28;20423;-75
2022/10/05 00:30:19;;;;;;;16.00;5.60;;;9.80;99.90;;;;;;5086240;28;20435;-75
2022/10/05 00:33:04;;;;;;;23.87;5.70;;;9.70;99.90;;;;;;5071052;28;20467;-75
2022/10/05 00:35:50;;;;;;;13.43;6.40;;;9.60;99.90;;;;;;5077091;28;20477;-75
2022/10/05 00:38:36;;;;;;;10.40;5.80;;;9.50;99.90;;;;;;5069989;28;20601;-75
2022/10/05 00:41:29;;;;;;;9.37;6.80;;;9.50;99.90;;;;;;5071638;28;20962;-75
2022/10/05 00:48:17;;;;;;;8.13;5.63;;;9.70;99.90;;;;;;5086144;28;20442;-75
2022/10/05 00:51:13;;;;;;;6.83;4.83;;;9.80;99.90;;;;;;5074234;28;20434;-75
2022/10/05 00:54:18;;;;;;;7.77;4.10;;;9.70;99.90;;;;;;5079032;28;20497;-75
2022/10/05 00:57:22;;;;;;;6.20;4.97;;;9.70;99.90;;;;;;5083782;28;20856;-75
2022/10/05 01:00:11;;;;;;;11.80;5.50;;;9.70;99.90;;;;;;5069170;28;20489;-75
2022/10/05 01:03:03;;;;;;;5.43;4.20;;;9.60;99.90;;;;;;5062580;28;21096;-75
2022/10/05 01:06:04;;;;;;;5.97;4.50;;;9.50;99.90;;;;;;5068789;28;20446;-75
2022/10/05 01:08:58;;;;;;;10.57;4.40;;;9.50;99.90;;;;;;5066223;28;20485;-75
2022/10/05 01:11:51;;;;;;;5.83;4.47;;;9.50;99.90;;;;;;5061336;28;20872;-75
2022/10/05 01:14:45;;;;;;;4.73;4.17;;;9.40;99.90;;;;;;5064666;28;20447;-76
2022/10/05 01:17:45;;;;;;;5.13;4.00;;;9.40;99.90;;;;;;5060444;28;20605;-75
2022/10/05 01:20:39;;;;;;;8.27;4.50;;;9.40;99.90;;;;;;5063366;28;20979;-75
2022/10/05 01:23:51;;;;;;;8.07;4.30;;;9.30;99.90;;;;;;5070016;28;20498;-75
2022/10/05 01:27:03;;;;;;;4.30;3.63;;;9.20;99.90;;;;;;5069547;28;20446;-75
2022/10/05 01:29:58;;;;;;;6.60;3.80;;;9.30;99.90;;;;;;5076569;28;20505;-75
2022/10/05 01:32:52;;;;;;;4.70;4.20;;;9.40;99.90;;;;;;5074009;28;20991;-75
2022/10/05 01:35:46;;;;;;;10.03;4.17;;;9.40;99.90;;;;;;5074538;28;20448;-76
2022/10/05 01:38:42;;;;;;;5.37;3.77;;;9.30;99.90;;;;;;5073388;28;20437;-75
2022/10/05 01:41:34;;;;;;;4.07;3.50;;;9.40;99.90;;;;;;5066867;28;20459;-75
2022/10/05 01:44:25;;;;;;;5.20;4.23;;;9.40;99.90;;;;;;5075056;28;20466;-75
2022/10/05 01:47:19;;;;;;;5.97;3.90;;;9.40;99.90;;;;;;5074925;28;20416;-75
2022/10/05 01:50:10;;;;;;;4.40;3.90;;;9.40;99.90;;;;;;5074214;28;20443;-75
2022/10/05 01:53:05;;;;;;;6.40;4.17;;;9.40;99.90;;;;;;5075554;28;20481;-75
2022/10/05 01:55:56;;;;;;;4.60;3.80;;;9.50;99.90;;;;;;5083782;28;20442;-76
2022/10/05 01:58:52;;;;;;;4.50;4.10;;;9.50;99.90;;;;;;5073637;28;20442;-75
2022/10/05 02:01:44;;;;;;;8.90;4.17;;;9.50;99.90;;;;;;5072337;28;20451;-75
2022/10/05 02:04:37;;;;;;;5.13;3.60;;;9.50;99.90;;;;;;5081169;28;20469;-75
2022/10/05 02:07:24;;;;;;;5.53;3.70;;;9.40;99.90;;;;;;5089513;28;20445;-75
2022/10/05 02:10:19;;;;;;;6.40;3.77;;;9.30;99.90;;;;;;5089054;28;20493;-75
2022/10/05 02:13:10;;;;;;;4.93;4.00;;;9.20;99.90;;;;;;5080849;28;20512;-75
2022/10/05 02:15:59;;;;;;;5.50;4.47;;;9.00;99.90;;;;;;5079745;28;20557;-75
2022/10/05 02:18:51;;;;;;;9.10;4.60;;;9.10;99.90;;;;;;5083906;28;20454;-75
2022/10/05 02:21:39;;;;;;;6.80;4.77;;;9.10;99.90;;;;;;5074725;28;20455;-75
2022/10/05 02:24:31;;;;;;;26.17;5.47;;;9.20;99.90;;;;;;5075101;28;20457;-75
2022/10/05 02:27:25;;;;;;;25.73;6.73;;;9.30;99.90;;;;;;5076684;28;20537;-75
2022/10/05 02:30:12;;;;;;;14.10;6.23;;;9.20;99.90;;;;;;5079130;28;20968;-75
2022/10/05 02:33:03;;;;;;;11.53;5.87;;;9.10;99.90;;;;;;5087085;28;20533;-75
2022/10/05 02:35:48;;;;;;;32.03;6.53;;;9.00;99.90;;;;;;5088093;28;20524;-76
2022/10/05 02:38:45;;;;;;;25.70;5.60;;;9.00;99.90;;;;;;5073446;28;20461;-75
2022/10/05 02:41:45;;;;;;;9.00;5.20;;;8.80;99.90;;;;;;5074807;28;21065;-75
2022/10/05 02:44:41;;;;;;;8.57;6.20;;;8.80;99.90;;;;;;5074120;28;20918;-75
2022/10/05 02:47:36;;;;;;;9.43;5.70;;;8.80;99.90;;;;;;5073284;28;20442;-75
2022/10/05 02:50:29;;;;;;;8.80;5.97;;;8.80;99.90;;;;;;5074598;28;20498;-75
2022/10/05 02:53:25;;;;;;;6.63;5.40;;;8.80;99.90;;;;;;5083049;28;20450;-75
2022/10/05 02:56:20;;;;;;;6.83;4.50;;;8.80;99.90;;;;;;5075238;28;20434;-75
2022/10/05 02:59:13;;;;;;;6.60;3.57;;;8.80;99.90;;;;;;5083423;28;20454;-75
2022/10/05 03:02:03;;;;;;;7.23;4.63;;;8.70;99.90;;;;;;5081114;28;20442;-75
2022/10/05 03:04:59;;;;;;;4.73;3.90;;;8.70;99.90;;;;;;5086083;28;20478;-75
2022/10/05 03:07:52;;;;;;;5.97;4.00;;;8.70;99.90;;;;;;5089690;28;20487;-75
2022/10/05 03:10:45;;;;;;;7.87;4.33;;;8.90;99.90;;;;;;5072994;28;20208;-75
2022/10/05 03:13:40;;;;;;;6.00;4.80;;;8.90;99.90;;;;;;5082596;28;20441;-75
2022/10/05 03:16:39;;;;;;;5.23;4.53;;;8.90;99.90;;;;;;5087423;28;20418;-75
2022/10/05 03:19:40;;;;;;;11.43;4.60;;;9.10;99.90;;;;;;5071971;28;20442;-75
2022/10/05 03:22:38;;;;;;;8.60;4.53;;;8.90;99.90;;;;;;5073202;28;20944;-75
2022/10/05 03:26:06;;;;;;;8.20;4.40;;;9.00;99.90;;;;;;5072855;28;20589;-75
2022/10/05 03:28:59;;;;;;;6.27;4.57;;;8.80;99.90;;;;;;5049213;28;20885;-75
2022/10/05 03:31:51;;;;;;;9.80;4.40;;;8.80;99.90;;;;;;5074378;28;20462;-75
2022/10/05 03:34:46;;;;;;;15.33;5.33;;;8.80;99.90;;;;;;5073209;28;20447;-75
2022/10/05 03:37:41;;;;;;;6.80;5.40;;;8.70;99.90;;;;;;5069581;28;20447;-75
2022/10/05 03:40:34;;;;;;;5.80;4.83;;;8.70;99.90;;;;;;5066603;28;20442;-75
2022/10/05 03:43:45;;;;;;;13.63;5.27;;;8.80;99.90;;;;;;5076508;28;20503;-75
2022/10/05 03:46:44;;;;;;;9.50;4.73;;;8.70;99.90;;;;;;5073904;28;20938;-75
2022/10/05 03:49:45;;;;;;;11.73;5.43;;;8.70;99.90;;;;;;5063043;28;20847;-75
2022/10/05 03:52:37;;;;;;;8.30;5.63;;;8.70;99.90;;;;;;5072705;28;20485;-75
2022/10/05 03:55:29;;;;;;;7.30;5.60;;;8.70;99.90;;;;;;5084815;28;20760;-75
2022/10/05 03:58:21;;;;;;;14.90;5.57;;;8.70;99.90;;;;;;5079190;28;20450;-75
2022/10/05 04:01:12;;;;;;;7.27;6.53;;;8.70;99.90;;;;;;5083101;28;20434;-75
2022/10/05 04:04:02;;;;;;;6.80;5.37;;;8.80;99.90;;;;;;5085321;28;20962;-75
2022/10/05 04:06:49;;;;;;;8.87;5.23;;;8.70;99.90;;;;;;5073185;28;20430;-75
2022/10/05 04:09:40;;;;;;;5.30;4.43;;;8.60;99.90;;;;;;5081517;28;20485;-75
2022/10/05 04:12:33;;;;;;;6.17;4.43;;;8.60;99.90;;;;;;5080629;28;20462;-75
2022/10/05 04:15:27;;;;;;;5.40;4.57;;;8.60;99.90;;;;;;5086562;28;20422;-75
2022/10/05 04:18:23;;;;;;;5.83;4.40;;;8.60;99.90;;;;;;5081331;28;20449;-75
2022/10/05 04:21:19;;;;;;;5.80;4.70;;;8.50;99.90;;;;;;5077192;28;20505;-75
2022/10/05 04:24:11;;;;;;;4.43;4.00;;;8.40;99.90;;;;;;5075304;28;20970;-75
2022/10/05 04:26:59;;;;;;;16.53;4.60;;;8.40;99.90;;;;;;5077360;28;20506;-75
2022/10/05 04:29:50;;;;;;;5.27;4.50;;;8.40;99.90;;;;;;5074531;28;21022;-75
2022/10/05 04:32:38;;;;;;;6.37;5.20;;;8.30;99.90;;;;;;5081638;28;20461;-75
2022/10/05 04:35:54;;;;;;;5.80;4.63;;;8.30;99.90;;;;;;5071068;28;20458;-75
2022/10/05 04:38:52;;;;;;;6.90;4.97;;;8.20;99.90;;;;;;5066673;28;20513;-75
2022/10/05 04:41:59;;;;;;;6.70;5.20;;;8.30;99.90;;;;;;5072143;28;20588;-75
2022/10/05 04:45:01;;;;;;;5.83;5.10;;;8.30;99.90;;;;;;5072254;28;20477;-75
2022/10/05 04:48:11;;;;;;;6.50;5.33;;;8.40;99.90;;;;;;5069815;28;20525;-75
2022/10/05 04:51:08;;;;;;;7.70;5.50;;;8.50;99.90;;;;;;5072155;28;20574;-75
2022/10/05 04:54:02;;;;;;;6.70;4.33;;;8.50;99.90;;;;;;5074461;28;20478;-75
2022/10/05 04:56:53;;;;;;;6.00;4.45;;;8.40;99.90;;;;;;5073421;28;21025;-75
2022/10/05 05:00:08;;;;;;;5.60;4.97;;;8.20;99.90;;;;;;5070285;28;20204;-75
2022/10/05 05:03:11;;;;;;;4.97;4.47;;;8.20;99.90;;;;;;5079781;28;20227;-75
2022/10/05 05:06:05;;;;;;;5.70;5.10;;;8.30;99.90;;;;;;5071453;28;21657;-75
2022/10/05 05:09:12;;;;;;;5.20;4.50;;;8.40;99.90;;;;;;5067549;28;21000;-75
2022/10/05 05:12:10;;;;;;;9.00;4.30;;;8.30;99.90;;;;;;5077161;28;20554;-75
2022/10/05 05:15:16;;;;;;;5.30;3.97;;;8.30;99.90;;;;;;5074951;28;20495;-75
2022/10/05 05:18:25;;;;;;;7.63;4.00;;;8.30;99.90;;;;;;5073251;28;20505;-75
2022/10/05 05:21:22;;;;;;;5.70;3.90;;;8.20;99.90;;;;;;5074138;28;20450;-75
2022/10/05 05:24:19;;;;;;;7.30;4.05;;;8.20;99.90;;;;;;5074973;28;20696;-75
2022/10/05 05:27:29;;;;;;;5.70;3.83;;;8.10;99.90;;;;;;5071014;28;20205;-75
2022/10/05 05:30:21;;;;;;;7.23;4.20;;;8.00;99.90;;;;;;5080162;28;20265;-75
2022/10/05 05:33:21;;;;;;;5.70;3.58;;;7.90;99.90;;;;;;5096580;28;20496;-75
2022/10/05 05:36:17;;;;;;;5.60;4.18;;;7.90;99.90;;;;;;5071773;28;20207;-75
2022/10/05 05:39:20;;;;;;;4.83;4.20;;;7.90;99.90;;;;;;5075000;28;20274;-75
2022/10/05 05:42:31;;;;;;;3.97;3.40;;;7.90;99.90;;;;;;5078920;28;20470;-75
2022/10/05 05:45:21;;;;;;;9.53;4.70;;;7.90;99.90;;;;;;5081546;28;20524;-75
2022/10/05 05:48:16;;;;;;;5.63;3.77;;;8.00;99.90;;;;;;5075934;28;20937;-75
2022/10/05 05:51:07;;;;;;;5.63;4.23;;;8.10;99.90;;;;;;5073123;28;20526;-75
2022/10/05 05:54:13;;;;;;;3.90;3.43;;;8.10;99.90;;;;;;5084617;28;20497;-75
2022/10/05 05:57:09;;;;;;;5.27;3.80;;;8.10;99.90;;;;;;5073161;28;20810;-75
2022/10/05 06:00:05;;;;;;;4.97;4.40;;;8.10;99.90;;;;;;5083599;28;20446;-75
2022/10/05 06:02:57;;;;;;;4.80;3.97;;;8.20;99.90;;;;;;5081767;28;20843;-76
2022/10/05 06:05:46;;;;;;;6.50;4.00;;;8.40;99.90;;;;;;5085282;28;20462;-75
2022/10/05 06:08:38;;;;;;;4.00;3.47;;;8.40;99.90;;;;;;5092847;28;20453;-76
2022/10/05 06:11:28;;;;;;;4.77;3.10;;;8.40;99.90;;;;;;5088578;28;20519;-75
2022/10/05 06:14:22;;;;;;;6.20;3.90;;;8.40;99.90;;;;;;5084960;28;20429;-75
2022/10/05 06:17:15;;;;;;;10.23;3.47;;;8.30;99.90;;;;;;5076361;28;20453;-75
2022/10/05 06:20:05;;;;;;;4.37;3.70;;;8.50;99.90;;;;;;5074137;28;20507;-75
2022/10/05 06:22:52;;;;;;;6.20;3.60;;;8.60;99.90;;;;;;5085870;22;20487;-77
2022/10/05 06:25:49;;;;;;;9.43;3.30;;;8.70;99.90;;;;;;5046118;28;20487;-78
2022/10/05 06:28:34;;;;;;;5.80;3.40;;;8.80;99.90;;;;;;5051162;28;20955;-77
2022/10/05 06:31:35;;;;;;;9.27;4.23;;;9.00;99.90;;;;;;5049789;28;20439;-78
2022/10/05 06:34:37;;;;;;;4.60;3.70;;;9.10;99.90;;;;;;5029876;28;20440;-78
2022/10/05 06:37:35;;;;;;;5.60;4.50;;;9.10;99.90;;;;;;5026808;28;20443;-78
2022/10/05 06:40:33;;;;;;;7.93;4.97;;;9.00;99.90;;;;;;5036448;28;20442;-78
2022/10/05 06:43:48;;;;;;;5.47;4.97;;;8.90;99.90;;;;;;5031585;28;21124;-77
2022/10/05 06:46:41;;;;;;;10.30;5.00;;;9.00;99.90;;;;;;5033136;28;20500;-77
2022/10/05 06:49:31;;;;;;;6.40;5.07;;;9.10;99.90;;;;;;5028535;28;20456;-78
2022/10/05 06:52:26;;;;;;;5.77;4.37;;;9.10;99.90;;;;;;5029994;28;20803;-77
2022/10/05 06:55:19;;;;;;;12.97;5.43;;;9.20;99.90;;;;;;5033275;28;20792;-77
2022/10/05 06:58:20;;;;;;;5.57;4.17;;;9.20;99.90;;;;;;5030894;28;20444;-77
2022/10/05 07:01:14;;;;;;;4.83;4.00;;;9.40;99.90;;;;;;5029629;28;20452;-77
2022/10/05 07:04:19;;;;;;;5.80;4.70;;;9.50;99.90;;;;;;5032341;28;20442;-77
2022/10/05 07:07:13;;;;;;;6.27;4.57;;;9.70;99.90;;;;;;5029883;28;20971;-78
2022/10/05 07:10:14;;;;;;;7.47;6.20;;;9.80;99.90;;;;;;5033663;28;20452;-77
2022/10/05 07:13:15;;;;;;;6.77;5.33;;;9.80;99.90;;;;;;5035066;28;20547;-77
2022/10/05 07:16:09;;;;;;;15.33;7.47;;;9.90;99.90;;;;;;5024871;28;20440;-77
2022/10/05 07:19:08;;;;;;;7.90;6.87;;;10.00;99.90;;;;;;5030146;28;20448;-77
2022/10/05 07:22:16;;;;;;;8.57;7.20;;;10.00;99.90;;;;;;5032008;28;20973;-77
2022/10/05 07:25:09;;;;;;;14.13;7.50;;;10.10;99.90;;;;;;5030451;28;20440;-77
2022/10/05 07:28:00;;;;;;;7.63;6.93;;;10.10;99.90;;;;;;5029749;28;20432;-78
2022/10/05 07:30:56;;;;;;;8.23;7.43;;;10.20;99.90;;;;;;5027448;28;20437;-77
2022/10/05 07:33:47;;;;;;;14.40;6.67;;;10.20;99.90;;;;;;5036296;28;20476;-77
2022/10/05 07:39:55;;;;;;;9.70;7.27;;;10.30;99.90;;;;;;5032418;28;20782;-77
2022/10/05 07:42:51;;;;;;;10.50;7.70;;;10.50;99.90;;;;;;5030697;28;20560;-77
2022/10/05 07:45:44;;;;;;;8.77;7.87;;;10.60;99.90;;;;;;5031155;28;20558;-77
2022/10/05 07:48:44;;;;;;;10.43;8.53;;;10.70;99.90;;;;;;5035438;28;20453;-77
2022/10/05 07:51:39;;;;;;;10.00;7.97;;;10.80;99.90;;;;;;5029230;28;20523;-77
2022/10/05 07:54:30;;;;;;;13.03;7.40;;;10.90;99.90;;;;;;5035633;28;20424;-78
2022/10/05 07:57:24;;;;;;;13.80;8.47;;;11.10;99.90;;;;;;5035654;28;20496;-78
2022/10/05 08:00:14;;;;;;;8.77;7.50;;;11.30;99.90;;;;;;5045740;28;20803;-78
2022/10/05 08:03:06;;;;;;;12.67;9.40;;;11.50;99.90;;;;;;5043785;28;20423;-78
2022/10/05 08:05:53;;;;;;;15.13;8.40;;;11.60;99.90;;;;;;5032402;28;21100;-77
2022/10/05 08:08:49;;;;;;;11.70;8.47;;;11.80;99.90;;;;;;5033607;28;20526;-77
2022/10/05 08:11:45;;;;;;;9.70;7.93;;;11.90;99.90;;;;;;5025716;28;20432;-77
2022/10/05 08:14:40;;;;;;;10.87;8.87;;;12.00;99.90;;;;;;5031753;28;20427;-78
2022/10/05 08:17:48;;;;;;;11.63;8.83;;;12.10;99.90;;;;;;5033025;28;20568;-78
2022/10/05 08:20:44;;;;;;;12.20;9.57;;;12.30;99.90;;;;;;5040131;28;20812;-78
2022/10/05 08:23:37;;;;;;;11.97;9.87;;;12.40;99.90;;;;;;5033953;28;20480;-79
2022/10/05 08:26:34;;;;;;;12.90;10.60;;;12.60;99.90;;;;;;5025532;28;20517;-79
2022/10/05 08:29:25;;;;;;;15.53;11.10;;;12.80;99.90;;;;;;5027544;28;20449;-79
2022/10/05 08:32:18;;;;;;;12.40;9.13;;;13.00;99.90;;;;;;5027458;28;20471;-78
2022/10/05 08:35:20;;;;;;;15.07;8.83;;;13.30;99.90;;;;;;5030843;28;20974;-76
2022/10/05 08:38:13;;;;;;;12.57;9.90;;;13.50;99.90;;;;;;5034306;28;20444;-76
2022/10/05 08:41:37;;;;;;;13.53;7.87;;;13.70;99.90;;;;;;5032893;28;20931;-75
2022/10/05 08:45:03;;;;;;;11.47;7.30;;;13.90;99.90;;;;;;5032675;28;21026;-76
2022/10/05 08:48:20;;;;;;;9.27;6.60;;;14.30;99.90;;;;;;5032705;28;20420;-76
2022/10/05 08:51:44;;;;;;;7.20;6.10;;;14.60;99.90;;;;;;5033392;28;20424;-77
2022/10/05 08:55:07;;;;;;;9.50;5.40;;;14.90;99.90;;;;;;5013748;28;20451;-77
2022/10/05 08:58:20;;;;;;;7.80;4.70;;;15.20;99.90;;;;;;5026055;28;20447;-77
2022/10/05 09:01:14;;;;;;;6.47;4.80;;;15.50;99.90;;;;;;5026639;28;20448;-77
2022/10/05 09:04:29;;;;;;;5.10;4.50;;;15.80;99.90;;;;;;5029028;28;20498;-77
2022/10/05 09:07:27;;;;;;;6.27;4.00;;;16.00;99.90;;;;;;5023447;28;20491;-77
2022/10/05 09:11:01;;;;;;;5.27;4.07;;;16.20;99.90;;;;;;5033216;28;20444;-77
2022/10/05 09:14:11;;;;;;;5.23;3.40;;;16.40;99.90;;;;;;4954961;28;21150;-77
2022/10/05 09:17:16;;;;;;;5.67;3.90;;;16.60;99.90;;;;;;4967411;28;20872;-77
2022/10/05 09:20:22;;;;;;;5.57;3.67;;;16.70;99.90;;;;;;5033207;28;20519;-77
2022/10/05 09:23:13;;;;;;;4.43;3.90;;;16.90;99.90;;;;;;5032898;28;20470;-77
2022/10/05 09:26:06;;;;;;;4.50;3.60;;;17.00;99.90;;;;;;5019234;28;20459;-76
2022/10/05 09:29:14;;;;;;;9.10;4.00;;;17.00;99.90;;;;;;5029878;28;20420;-76
2022/10/05 09:32:18;;;;;;;6.00;4.00;;;17.10;99.90;;;;;;5033392;28;20427;-76
2022/10/05 09:35:21;;;;;;;5.53;3.70;;;17.30;99.90;;;;;;5029684;28;20440;-76
2022/10/05 09:38:17;;;;;;;4.90;3.30;;;17.40;99.90;;;;;;5043036;28;20423;-76
2022/10/05 09:41:32;;;;;;;4.60;3.73;;;17.50;99.90;;;;;;5032591;28;20448;-76
2022/10/05 09:44:50;;;;;;;11.03;3.50;;;17.60;99.90;;;;;;5030821;28;20467;-76
2022/10/05 09:47:59;;;;;;;4.47;3.77;;;17.80;99.90;;;;;;5015870;28;20602;-76
2022/10/05 09:51:15;;;;;;;9.70;3.70;;;18.00;99.90;;;;;;5022202;28;20791;-76
2022/10/05 09:55:00;;;;;;;11.70;3.63;;;18.20;99.90;;;;;;5010193;28;20463;-76
2022/10/05 09:58:14;;;;;;;5.40;3.73;;;18.30;99.90;;;;;;4997552;28;20405;-76
2022/10/05 10:01:27;;;;;;;3.90;3.10;;;18.30;99.90;;;;;;5036582;28;20785;-76
2022/10/05 10:04:29;;;;;;;8.07;3.87;;;18.30;99.90;;;;;;5025300;28;20447;-77
2022/10/05 10:07:58;;;;;;;8.93;3.77;;;18.40;99.90;;;;;;5032286;28;21080;-78
2022/10/05 10:11:08;;;;;;;4.37;3.23;;;18.60;99.90;;;;;;5030883;28;20399;-79
2022/10/05 10:14:20;;;;;;;5.87;3.63;;;18.70;99.90;;;;;;5030098;28;20438;-79
2022/10/05 10:17:28;;;;;;;8.90;3.00;;;18.70;99.90;;;;;;5051118;28;20482;-78
2022/10/05 10:20:30;;;;;;;5.17;3.47;;;18.80;99.90;;;;;;5052292;28;20790;-78
2022/10/05 10:23:46;;;;;;;5.53;3.03;;;18.90;99.90;;;;;;5042911;28;20458;-78
2022/10/05 10:27:01;;;;;;;5.00;3.30;;;19.00;99.90;;;;;;5037882;28;20455;-78
2022/10/05 10:30:25;;;;;;;5.90;3.67;;;19.00;99.90;;;;;;5047062;28;20973;-78
2022/10/05 10:33:28;;;;;;;9.70;3.07;;;18.90;99.90;;;;;;5030091;28;20464;-78
2022/10/05 10:36:18;;;;;;;5.03;3.10;;;19.10;99.90;;;;;;5040491;28;20414;-78
2022/10/05 10:39:11;;;;;;;3.93;3.07;;;19.30;99.90;;;;;;5039861;28;20434;-79
2022/10/05 10:42:25;;;;;;;4.63;3.30;;;19.30;99.90;;;;;;5030322;28;20814;-79
2022/10/05 10:45:33;;;;;;;3.80;2.73;;;19.40;99.90;;;;;;5043886;28;20579;-79
2022/10/05 10:48:57;;;;;;;8.20;4.80;;;19.40;99.90;;;;;;5034401;28;20953;-76
2022/10/05 10:52:05;;;;;;;5.03;3.60;;;19.60;99.90;;;;;;5021096;28;20415;-77
2022/10/05 10:55:35;;;;;;;4.20;3.17;;;19.80;99.90;;;;;;5032675;28;20470;-77
2022/10/05 10:59:03;;;;;;;4.97;3.47;;;20.00;99.90;;;;;;5031515;28;20593;-77
2022/10/05 11:02:05;;;;;;;4.40;3.47;;;20.00;99.90;;;;;;5028807;28;20497;-76
2022/10/05 11:05:08;;;;;;;6.80;3.30;;;19.90;99.90;;;;;;5027447;28;20474;-78
2022/10/05 11:08:17;;;;;;;6.37;3.50;;;20.00;99.90;;;;;;5023202;28;20451;-77
2022/10/05 11:11:23;;;;;;;4.07;2.90;;;20.20;99.90;;;;;;5031348;28;20419;-78
2022/10/05 11:14:41;;;;;;;4.63;3.10;;;20.30;99.90;;;;;;5032171;28;20434;-78
2022/10/05 11:18:01;;;;;;;5.10;3.60;;;20.30;99.90;;;;;;5027832;28;20533;-77
2022/10/05 11:21:24;;;;;;;5.27;3.60;;;20.30;99.90;;;;;;5011443;28;20452;-78
2022/10/05 11:24:37;;;;;;;4.70;3.60;;;20.10;99.90;;;;;;5029799;28;20829;-77
2022/10/05 11:27:50;;;;;;;4.27;3.37;;;20.30;99.90;;;;;;5029835;28;20450;-77
2022/10/05 11:31:20;;;;;;;3.40;2.70;;;20.30;99.90;;;;;;5027488;28;20431;-77
2022/10/05 11:34:35;;;;;;;5.20;3.83;;;20.40;99.90;;;;;;5003154;28;20472;-77
2022/10/05 11:37:53;;;;;;;4.50;2.87;;;20.40;99.90;;;;;;5030784;28;20811;-78
2022/10/05 11:41:02;;;;;;;9.50;4.40;;;20.50;99.90;;;;;;5031997;28;20555;-77
2022/10/05 11:44:24;;;;;;;4.73;3.47;;;20.50;99.90;;;;;;5024843;28;20673;-76
2022/10/05 11:47:16;;;;;;;5.10;3.17;;;20.60;99.90;;;;;;5031557;28;20544;-76
2022/10/05 11:50:11;;;;;;;7.10;3.60;;;20.50;99.90;;;;;;5026019;28;20830;-77
2022/10/05 11:53:01;;;;;;;4.40;2.90;;;20.60;99.90;;;;;;5024365;28;20465;-77
2022/10/05 11:55:57;;;;;;;6.53;3.23;;;20.70;99.90;;;;;;5024086;28;20520;-77
2022/10/05 11:58:50;;;;;;;9.00;3.00;;;20.70;99.90;;;;;;5031061;28;20794;-76
2022/10/05 12:01:46;;;;;;;4.20;3.07;;;20.90;99.90;;;;;;5030746;28;20427;-77
2022/10/05 12:04:44;;;;;;;4.30;3.87;;;20.90;99.90;;;;;;5026201;28;20419;-79
2022/10/05 12:07:39;;;;;;;4.40;2.80;;;21.00;99.90;;;;;;5023848;28;20643;-77
2022/10/05 12:10:32;;;;;;;6.70;3.23;;;21.00;99.90;;;;;;5031658;28;20539;-77
2022/10/05 12:13:29;;;;;;;5.23;2.90;;;21.10;99.90;;;;;;5027622;28;20499;-77
2022/10/05 12:16:22;;;;;;;3.73;2.40;;;21.20;99.90;;;;;;5029031;28;20425;-78
2022/10/05 12:19:18;;;;;;;3.77;2.57;;;21.10;99.90;;;;;;5034237;28;20440;-78
2022/10/05 12:22:14;;;;;;;5.10;2.50;;;21.10;99.90;;;;;;5034698;28;20432;-78
2022/10/05 12:25:16;;;;;;;6.57;3.17;;;21.30;99.90;;;;;;5041098;22;20512;-75
2022/10/05 12:28:09;;;;;;;6.33;2.90;;;21.50;99.90;;;;;;5040189;28;20471;-75
2022/10/05 12:31:12;;;;;;;5.20;2.60;;;21.50;97.10;;;;;;5040541;28;20795;-75
2022/10/05 12:34:10;;;;;;;5.97;2.63;;;21.70;98.00;;;;;;5029138;28;20963;-74
2022/10/05 12:37:03;;;;;;;6.03;2.70;;;22.00;96.30;;;;;;5027654;28;20603;-75
2022/10/05 12:39:57;;;;;;;4.00;2.43;;;22.20;96.60;;;;;;5018087;28;20464;-74
2022/10/05 12:42:49;;;;;;;3.23;2.70;;;22.50;94.30;;;;;;5028440;28;20464;-75
2022/10/05 12:45:51;;;;;;;3.20;2.30;;;22.50;90.20;;;;;;5015082;28;20608;-75
2022/10/05 12:48:55;;;;;;;3.80;2.83;;;22.40;90.00;;;;;;5020891;28;20475;-75
2022/10/05 12:51:44;;;;;;;3.87;2.47;;;22.30;84.70;;;;;;5024036;28;20447;-75
2022/10/05 12:54:44;;;;;;;3.60;2.67;;;22.20;87.30;;;;;;5028340;28;20467;-74
2022/10/05 12:57:38;;;;;;;3.80;2.53;;;22.20;87.40;;;;;;5030113;28;20427;-75
2022/10/05 13:00:24;;;;;;;4.27;2.77;;;22.30;88.50;;;;;;5023036;28;20522;-75
2022/10/05 13:03:19;;;;;;;4.40;2.77;;;22.40;85.90;;;;;;5030565;28;20480;-74
2022/10/05 13:06:15;;;;;;;5.70;2.47;;;22.60;85.50;;;;;;5034155;28;20539;-75
2022/10/05 13:09:07;;;;;;;4.40;2.63;;;22.80;85.60;;;;;;5035958;28;20419;-75
2022/10/05 13:12:02;;;;;;;4.20;2.70;;;22.90;82.50;;;;;;5030363;28;20525;-75
2022/10/05 13:14:59;;;;;;;3.60;2.23;;;23.00;82.30;;;;;;5018466;28;20468;-75
2022/10/05 13:17:50;;;;;;;6.30;2.23;;;23.20;79.30;;;;;;5031792;28;20425;-75
2022/10/05 13:20:42;;;;;;;5.53;2.57;;;23.20;78.90;;;;;;5028975;28;20928;-75
2022/10/05 13:23:34;;;;;;;5.03;2.53;;;23.10;77.10;;;;;;5027599;28;20553;-75
2022/10/05 13:26:26;;;;;;;4.50;3.20;;;23.10;79.50;;;;;;5039345;28;20410;-75
2022/10/05 13:29:22;;;;;;;7.33;2.30;;;23.20;78.50;;;;;;5041327;28;20406;-75
2022/10/05 13:32:15;;;;;;;4.30;2.60;;;23.40;77.40;;;;;;5035654;28;20428;-75
2022/10/05 13:35:11;;;;;;;4.47;2.73;;;23.50;77.10;;;;;;5027477;28;20929;-75
2022/10/05 13:38:07;;;;;;;7.40;2.80;;;23.70;77.60;;;;;;5037354;28;20896;-74
2022/10/05 13:41:02;;;;;;;3.87;2.60;;;23.90;77.80;;;;;;5041549;28;20426;-75
2022/10/05 13:43:57;;;;;;;4.03;2.60;;;23.90;71.10;;;;;;5026406;28;20436;-75
2022/10/05 13:46:48;;;;;;;4.23;2.50;;;24.00;70.30;;;;;;5034098;28;20598;-75
2022/10/05 13:49:44;;;;;;;6.17;3.33;;;24.00;69.20;;;;;;5022858;28;20564;-75
2022/10/05 13:52:41;;;;;;;5.87;2.60;;;24.10;72.00;;;;;;5021984;28;20511;-75
2022/10/05 13:55:47;;;;;;;4.03;2.67;;;23.90;69.30;;;;;;5032167;28;20475;-75
2022/10/05 13:58:42;;;;;;;3.70;2.57;;;23.80;70.70;;;;;;5030209;28;20440;-75
2022/10/05 14:01:35;;;;;;;4.07;2.77;;;23.80;71.20;;;;;;5035123;28;20447;-75
2022/10/05 14:04:27;;;;;;;3.77;2.47;;;23.90;70.80;;;;;;5020654;28;20463;-75
2022/10/05 14:07:25;;;;;;;4.27;2.47;;;23.90;69.70;;;;;;5030394;28;20480;-76
2022/10/05 14:10:14;;;;;;;5.70;2.97;;;24.10;69.30;;;;;;5034584;28;20444;-76
2022/10/05 14:13:00;;;;;;;4.80;3.10;;;24.20;70.20;;;;;;5028752;28;20501;-75
2022/10/05 14:15:58;;;;;;;3.90;2.43;;;24.40;69.40;;;;;;5029873;28;20440;-75
2022/10/05 14:18:53;;;;;;;6.63;2.50;;;24.50;68.60;;;;;;5024695;28;20433;-76
2022/10/05 14:21:49;;;;;;;4.80;3.23;;;24.60;65.90;;;;;;5031652;28;20853;-75
2022/10/05 14:24:36;;;;;;;3.10;2.50;;;24.80;64.30;;;;;;5031804;28;20558;-75
2022/10/05 14:27:25;;;;;;;7.97;3.33;;;24.60;65.10;;;;;;5038630;28;20472;-75
2022/10/05 14:30:22;;;;;;;3.10;2.40;;;24.70;66.40;;;;;;5027214;28;20489;-76
2022/10/05 14:33:15;;;;;;;11.70;2.80;;;25.00;64.40;;;;;;5028262;28;20968;-76
2022/10/05 14:36:01;;;;;;;3.70;2.20;;;25.20;61.20;;;;;;5031289;28;20448;-75
2022/10/05 14:38:56;;;;;;;3.17;2.33;;;25.40;63.40;;;;;;5040490;28;20444;-74
2022/10/05 14:41:47;;;;;;;3.70;2.40;;;25.60;60.90;;;;;;5027413;28;20449;-74
2022/10/05 14:44:33;;;;;;;4.70;2.70;;;25.70;59.20;;;;;;5035347;28;22241;-74
2022/10/05 14:47:22;;;;;;;3.60;2.30;;;25.50;56.20;;;;;;5027659;28;20492;-75
2022/10/05 14:50:16;;;;;;;2.60;2.20;;;25.50;57.20;;;;;;5044659;28;20700;-75
2022/10/05 14:53:15;;;;;;;5.00;2.60;;;25.50;57.90;;;;;;5027692;28;20962;-74
2022/10/05 14:56:32;;;;;;;4.20;2.80;;;25.00;58.60;;;;;;5042805;28;20507;-75
2022/10/05 14:59:31;;;;;;;4.20;2.73;;;25.10;59.70;;;;;;5036417;28;20438;-75
2022/10/05 15:02:57;;;;;;;3.60;2.80;;;25.20;58.80;;;;;;5028169;28;20570;-75
2022/10/05 15:05:47;;;;;;;5.17;2.53;;;24.90;59.70;;;;;;4980490;28;20450;-75
2022/10/05 15:08:50;;;;;;;8.17;2.83;;;25.30;57.30;;;;;;5021392;28;20464;-75
2022/10/05 15:11:45;;;;;;;4.50;2.63;;;25.50;53.30;;;;;;5023755;28;20465;-73
2022/10/05 15:14:35;;;;;;;5.93;2.83;;;25.40;54.90;;;;;;5039819;28;20471;-76
2022/10/05 15:17:26;;;;;;;4.57;2.97;;;24.60;58.20;;;;;;5030822;28;20443;-76
2022/10/05 15:20:18;;;;;;;4.30;3.10;;;24.30;62.00;;;;;;5039364;28;20415;-77
2022/10/05 15:23:23;;;;;;;9.80;3.00;;;23.90;64.30;;;;;;5037320;28;20466;-76
2022/10/05 15:26:26;;;;;;;5.47;2.97;;;23.70;65.20;;;;;;5044276;28;20448;-74
2022/10/05 15:29:28;;;;;;;4.50;2.60;;;23.50;69.90;;;;;;5046451;28;20504;-76
2022/10/05 15:32:27;;;;;;;8.87;2.90;;;23.10;71.50;;;;;;5025489;28;20456;-76
2022/10/05 15:35:34;;;;;;;6.10;3.27;;;22.80;72.30;;;;;;5037129;28;20460;-76
2022/10/05 15:38:23;;;;;;;4.10;2.90;;;22.70;75.30;;;;;;5033099;28;20435;-75
2022/10/05 15:41:14;;;;;;;3.77;2.67;;;22.60;77.30;;;;;;5039100;28;20449;-74